PST: 10:55 MST: 11:55 CST: 12:55 EST: 13:55 LDN: 18:55 UTC: 18:55
User Agent: CCBot/2.0 (https://commoncrawl.org/faq/)
IP Address: 100.25.43.188
Hostname: ec2-100-25-43-188.compute-1.amazonaws.com

METAR:
KBFI 141853Z 13003KT 4SM BR FEW007 OVC150 11/08 A3000 RMK AO2 SLP160 T01060083
KBFI 141818Z 00000KT 4SM BR FEW006 OVC150 11/08 A3001 RMK AO2 T01060083
KBFI 141753Z 00000KT 4SM BR BKN004 BKN090 10/08 A3003 RMK AO2 SLP168 T01000078 10100 20072 50002
KBFI 141714Z COR 17003KT 3SM BR OVC005 09/08 A3003 RMK AO2 T00890078
KBFI 141653Z 00000KT 1 1/2SM BR OVC003 09/08 A3003 RMK AO2 SLP169 T00890078
KBFI 141621Z 00000KT 1 1/2SM BR OVC003 08/08 A3003 RMK AO2 CIG 002V006 T00830078
KBFI 141553Z 14003KT 1/2SM FG VV002 08/07 A3003 RMK AO2 SLP168 T00830072
KBFI 141544Z 00000KT 3/4SM BR OVC002 08/07 A3003 RMK AO2 T00830072

TAF:
KBFI 141723Z 1418/1518 20005KT 5SM BR BKN005 BKN200
FM 141900 20004KT P6SM SCT006 BKN100 BKN200
FM 142000 20003KT P6SM BKN100 OVC200
FM 150900 16005KT P6SM BKN014 OVC050
FM 151200 17005KT P6SM -RA BKN014 OVC020

KBFI 141555Z 1416/1512 00000KT 1SM BR OVC002
FM 141800 VRB03KT P6SM BKN100 OVC250
FM 150900 16005KT P6SM OVC050

KBFI 141128Z 1412/1512 00000KT 1/2SM FG OVC002
FM 141600 VRB03KT P6SM BKN100 OVC250
FM 150900 16005KT P6SM OVC050

KBFI 140535Z 1406/1506 00000KT 6SM BR OVC006 TEMPO 1406/1410 1SM BR OVC002
FM 141500 12003KT P6SM BKN100 OVC250
FM 142100 19004KT P6SM BKN150 OVC250
FM 150200 16003KT P6SM BKN150 OVC250

KBFI 140301Z 1403/1424 00000KT P6SM BKN010 BKN250 TEMPO 1403/1406 1SM BR OVC002
FM 141700 15003KT P6SM BKN150 OVC250

KBFI 132320Z 1400/1424 VRB03KT P6SM FEW020 BKN250
FM 140200 00000KT P6SM BKN250
FM 141700 15003KT P6SM BKN150 OVC250

KBFI 131957Z 1320/1418 02003KT P6SM SCT012 BKN200 TEMPO 1320/1322 BKN012 BKN200
FM 132200 34005KT P6SM BKN200
FM 140200 00000KT P6SM BKN200

KBFI 131720Z 1318/1418 33004KT P6SM SCT008 BKN200 TEMPO 1318/1319 BKN008 BKN200
FM 132000 34005KT P6SM BKN200
FM 140200 00000KT P6SM BKN200